West Renovo, Pennsylvania
Current Conditions -  °F | °C
As of 7:35 AM on Thursday 23 Oct 2014 (Local Time) from KN38 Reporting Station
Overcast Overcast  
Wind Chill: 34°   Ceiling: 1000
Heat Index: 43°   Visibility: 10mi
Dew Point: 41°   Wind: 20mph
Humidity: 93%   Direction: 350°N
Pressure: 29.98"   Gusts: 29mph
Location:  41.3916°N, 77.7796°W
Report Text: KN38 231135Z AUTO 35017G25KT 10SM OVC010 06/05 A2998 RMK AO2
Loading
Personal Weather Stations






























Interactive Weather Map
Tropical Storm Tracking
New forecast layout! Learn more

10-Day Weather Forecast

Advertisements
Track Severe Weather on mobile